sensor_id;sensor_type;location;lat;lon;timestamp;temperature;humidity
50758;DHT22;36732;47.980;11.652;2023-05-16T00:02:17;14.80;67.20
50758;DHT22;36732;47.980;11.652;2023-05-16T00:04:42;14.80;67.20
50758;DHT22;36732;47.980;11.652;2023-05-16T00:07:08;14.80;67.20
50758;DHT22;36732;47.980;11.652;2023-05-16T00:09:34;14.80;67.20
50758;DHT22;36732;47.980;11.652;2023-05-16T00:11:59;14.80;67.10
50758;DHT22;36732;47.980;11.652;2023-05-16T00:14:25;14.80;67.10
50758;DHT22;36732;47.980;11.652;2023-05-16T00:16:55;14.80;67.10
50758;DHT22;36732;47.980;11.652;2023-05-16T00:19:23;14.80;67.10
50758;DHT22;36732;47.980;11.652;2023-05-16T00:21:51;14.80;67.10
50758;DHT22;36732;47.980;11.652;2023-05-16T00:24:17;14.80;67.20
50758;DHT22;36732;47.980;11.652;2023-05-16T00:26:42;14.80;67.10
50758;DHT22;36732;47.980;11.652;2023-05-16T00:29:08;14.80;67.10
50758;DHT22;36732;47.980;11.652;2023-05-16T00:31:34;14.80;67.10
50758;DHT22;36732;47.980;11.652;2023-05-16T00:34:00;14.80;67.10
50758;DHT22;36732;47.980;11.652;2023-05-16T00:36:25;14.80;67.20
50758;DHT22;36732;47.980;11.652;2023-05-16T00:38:51;14.80;67.30
50758;DHT22;36732;47.980;11.652;2023-05-16T00:41:17;14.80;67.20
50758;DHT22;36732;47.980;11.652;2023-05-16T00:43:43;14.80;67.10
50758;DHT22;36732;47.980;11.652;2023-05-16T00:46:09;14.70;67.00
50758;DHT22;36732;47.980;11.652;2023-05-16T00:48:35;14.70;67.00
50758;DHT22;36732;47.980;11.652;2023-05-16T00:51:01;14.80;67.20
50758;DHT22;36732;47.980;11.652;2023-05-16T00:53:27;14.70;67.20
50758;DHT22;36732;47.980;11.652;2023-05-16T00:55:53;14.70;67.10
50758;DHT22;36732;47.980;11.652;2023-05-16T00:58:20;14.70;67.20
50758;DHT22;36732;47.980;11.652;2023-05-16T01:00:47;14.70;67.20
50758;DHT22;36732;47.980;11.652;2023-05-16T01:03:13;14.70;67.20
50758;DHT22;36732;47.980;11.652;2023-05-16T01:05:40;14.70;67.20
50758;DHT22;36732;47.980;11.652;2023-05-16T01:08:05;14.70;67.20
50758;DHT22;36732;47.980;11.652;2023-05-16T01:11:08;14.70;67.30
50758;DHT22;36732;47.980;11.652;2023-05-16T01:16:25;14.70;67.00
50758;DHT22;36732;47.980;11.652;2023-05-16T01:22:10;14.70;67.00
50758;DHT22;36732;47.980;11.652;2023-05-16T01:27:46;14.70;66.90
50758;DHT22;36732;47.980;11.652;2023-05-16T01:30:19;14.70;67.00
50758;DHT22;36732;47.980;11.652;2023-05-16T01:32:45;14.70;67.00
50758;DHT22;36732;47.980;11.652;2023-05-16T01:35:13;14.70;67.00
50758;DHT22;36732;47.980;11.652;2023-05-16T01:43:00;14.70;67.00
50758;DHT22;36732;47.980;11.652;2023-05-16T01:45:31;14.70;66.90
50758;DHT22;36732;47.980;11.652;2023-05-16T01:48:14;14.70;66.90
50758;DHT22;36732;47.980;11.652;2023-05-16T01:50:51;14.70;67.00
50758;DHT22;36732;47.980;11.652;2023-05-16T01:53:22;14.70;66.90
50758;DHT22;36732;47.980;11.652;2023-05-16T01:55:52;14.70;67.00
50758;DHT22;36732;47.980;11.652;2023-05-16T01:58:24;14.70;67.00
50758;DHT22;36732;47.980;11.652;2023-05-16T02:00:54;14.70;67.10
50758;DHT22;36732;47.980;11.652;2023-05-16T02:03:25;14.70;67.10
50758;DHT22;36732;47.980;11.652;2023-05-16T02:05:50;14.70;67.00
50758;DHT22;36732;47.980;11.652;2023-05-16T02:08:16;14.70;67.10
50758;DHT22;36732;47.980;11.652;2023-05-16T02:10:48;14.70;67.10
50758;DHT22;36732;47.980;11.652;2023-05-16T02:13:13;14.70;67.00
50758;DHT22;36732;47.980;11.652;2023-05-16T02:15:39;14.70;67.10
50758;DHT22;36732;47.980;11.652;2023-05-16T02:18:05;14.70;67.20
50758;DHT22;36732;47.980;11.652;2023-05-16T02:20:31;14.70;67.20
50758;DHT22;36732;47.980;11.652;2023-05-16T02:22:57;14.70;67.20
50758;DHT22;36732;47.980;11.652;2023-05-16T02:25:23;14.70;67.80
50758;DHT22;36732;47.980;11.652;2023-05-16T02:27:49;14.70;67.20
50758;DHT22;36732;47.980;11.652;2023-05-16T02:30:15;14.70;67.20
50758;DHT22;36732;47.980;11.652;2023-05-16T02:32:41;14.70;67.10
50758;DHT22;36732;47.980;11.652;2023-05-16T02:35:10;14.70;67.20
50758;DHT22;36732;47.980;11.652;2023-05-16T02:37:36;14.70;67.10
50758;DHT22;36732;47.980;11.652;2023-05-16T02:40:02;14.70;67.10
50758;DHT22;36732;47.980;11.652;2023-05-16T02:42:32;14.70;67.20
50758;DHT22;36732;47.980;11.652;2023-05-16T02:44:58;14.70;67.10
50758;DHT22;36732;47.980;11.652;2023-05-16T02:47:24;14.60;67.10
50758;DHT22;36732;47.980;11.652;2023-05-16T02:49:49;14.60;67.10
50758;DHT22;36732;47.980;11.652;2023-05-16T02:52:17;14.60;67.10
50758;DHT22;36732;47.980;11.652;2023-05-16T02:54:43;14.70;67.20
50758;DHT22;36732;47.980;11.652;2023-05-16T02:57:09;14.60;67.10
50758;DHT22;36732;47.980;11.652;2023-05-16T02:59:35;14.60;67.10
50758;DHT22;36732;47.980;11.652;2023-05-16T03:02:01;14.60;67.20
50758;DHT22;36732;47.980;11.652;2023-05-16T03:04:27;14.60;67.70
50758;DHT22;36732;47.980;11.652;2023-05-16T03:06:52;14.60;67.10
50758;DHT22;36732;47.980;11.652;2023-05-16T03:09:18;14.60;67.10
50758;DHT22;36732;47.980;11.652;2023-05-16T03:11:44;14.60;67.20
50758;DHT22;36732;47.980;11.652;2023-05-16T03:14:10;14.60;67.10
50758;DHT22;36732;47.980;11.652;2023-05-16T03:16:37;14.60;67.20
50758;DHT22;36732;47.980;11.652;2023-05-16T03:19:04;14.60;67.20
50758;DHT22;36732;47.980;11.652;2023-05-16T03:21:29;14.60;67.20
50758;DHT22;36732;47.980;11.652;2023-05-16T03:23:56;14.60;67.20
50758;DHT22;36732;47.980;11.652;2023-05-16T03:26:23;14.60;67.20
50758;DHT22;36732;47.980;11.652;2023-05-16T03:28:49;14.60;67.20
50758;DHT22;36732;47.980;11.652;2023-05-16T03:31:15;14.60;67.20
50758;DHT22;36732;47.980;11.652;2023-05-16T03:33:41;14.60;67.20
50758;DHT22;36732;47.980;11.652;2023-05-16T03:36:08;14.50;67.10
50758;DHT22;36732;47.980;11.652;2023-05-16T03:38:34;14.50;67.10
50758;DHT22;36732;47.980;11.652;2023-05-16T03:41:00;14.60;67.20
50758;DHT22;36732;47.980;11.652;2023-05-16T03:43:26;14.50;67.20
50758;DHT22;36732;47.980;11.652;2023-05-16T03:45:52;14.50;67.20
50758;DHT22;36732;47.980;11.652;2023-05-16T03:48:18;14.50;67.20
50758;DHT22;36732;47.980;11.652;2023-05-16T03:50:43;14.50;67.20
50758;DHT22;36732;47.980;11.652;2023-05-16T03:53:09;14.50;67.20
50758;DHT22;36732;47.980;11.652;2023-05-16T03:55:36;14.50;67.30
50758;DHT22;36732;47.980;11.652;2023-05-16T03:58:02;14.50;67.30
50758;DHT22;36732;47.980;11.652;2023-05-16T04:00:27;14.50;67.30
50758;DHT22;36732;47.980;11.652;2023-05-16T04:02:53;14.50;67.30
50758;DHT22;36732;47.980;11.652;2023-05-16T04:05:19;14.50;67.30
50758;DHT22;36732;47.980;11.652;2023-05-16T04:07:45;14.50;67.30
50758;DHT22;36732;47.980;11.652;2023-05-16T04:10:11;14.50;67.40
50758;DHT22;36732;47.980;11.652;2023-05-16T04:12:37;14.50;67.40
50758;DHT22;36732;47.980;11.652;2023-05-16T04:15:04;14.50;67.40
50758;DHT22;36732;47.980;11.652;2023-05-16T04:17:31;14.50;67.40
50758;DHT22;36732;47.980;11.652;2023-05-16T04:19:57;14.50;67.40
50758;DHT22;36732;47.980;11.652;2023-05-16T04:22:24;14.50;67.40
50758;DHT22;36732;47.980;11.652;2023-05-16T04:24:49;14.50;67.50
50758;DHT22;36732;47.980;11.652;2023-05-16T04:27:16;14.50;67.50
50758;DHT22;36732;47.980;11.652;2023-05-16T04:29:42;14.50;67.60
50758;DHT22;36732;47.980;11.652;2023-05-16T04:32:08;14.40;67.60
50758;DHT22;36732;47.980;11.652;2023-05-16T04:34:35;14.50;67.70
50758;DHT22;36732;47.980;11.652;2023-05-16T04:37:03;14.40;67.70
50758;DHT22;36732;47.980;11.652;2023-05-16T04:39:30;14.40;67.70
50758;DHT22;36732;47.980;11.652;2023-05-16T04:41:56;14.40;67.70
50758;DHT22;36732;47.980;11.652;2023-05-16T04:44:25;14.40;67.70
50758;DHT22;36732;47.980;11.652;2023-05-16T04:46:51;14.40;67.70
50758;DHT22;36732;47.980;11.652;2023-05-16T04:49:21;14.40;67.80
50758;DHT22;36732;47.980;11.652;2023-05-16T04:51:47;14.40;67.80
50758;DHT22;36732;47.980;11.652;2023-05-16T04:54:13;14.40;67.90
50758;DHT22;36732;47.980;11.652;2023-05-16T04:56:39;14.40;67.90
50758;DHT22;36732;47.980;11.652;2023-05-16T04:59:05;14.50;68.00
50758;DHT22;36732;47.980;11.652;2023-05-16T05:01:31;14.40;68.00
50758;DHT22;36732;47.980;11.652;2023-05-16T05:03:57;14.40;68.00
50758;DHT22;36732;47.980;11.652;2023-05-16T05:06:22;14.40;67.90
50758;DHT22;36732;47.980;11.652;2023-05-16T05:08:48;14.40;68.60
50758;DHT22;36732;47.980;11.652;2023-05-16T05:11:14;14.40;68.10
50758;DHT22;36732;47.980;11.652;2023-05-16T05:13:40;14.40;68.10
50758;DHT22;36732;47.980;11.652;2023-05-16T05:16:05;14.40;68.10
50758;DHT22;36732;47.980;11.652;2023-05-16T05:18:31;14.40;68.10
50758;DHT22;36732;47.980;11.652;2023-05-16T05:20:58;14.40;68.10
50758;DHT22;36732;47.980;11.652;2023-05-16T05:23:24;14.40;68.20
50758;DHT22;36732;47.980;11.652;2023-05-16T05:25:50;14.30;68.10
50758;DHT22;36732;47.980;11.652;2023-05-16T05:28:16;14.30;68.20
50758;DHT22;36732;47.980;11.652;2023-05-16T05:30:41;14.30;68.30
50758;DHT22;36732;47.980;11.652;2023-05-16T05:33:07;14.30;68.60
50758;DHT22;36732;47.980;11.652;2023-05-16T05:35:35;14.30;68.40
50758;DHT22;36732;47.980;11.652;2023-05-16T05:38:00;14.30;68.40
50758;DHT22;36732;47.980;11.652;2023-05-16T05:40:26;14.30;68.40
50758;DHT22;36732;47.980;11.652;2023-05-16T05:42:52;14.30;68.40
50758;DHT22;36732;47.980;11.652;2023-05-16T05:45:18;14.30;68.40
50758;DHT22;36732;47.980;11.652;2023-05-16T05:47:43;14.30;68.40
50758;DHT22;36732;47.980;11.652;2023-05-16T05:50:10;14.30;68.70
50758;DHT22;36732;47.980;11.652;2023-05-16T05:52:37;14.30;68.60
50758;DHT22;36732;47.980;11.652;2023-05-16T05:55:03;14.30;68.80
50758;DHT22;36732;47.980;11.652;2023-05-16T05:57:29;14.30;68.70
50758;DHT22;36732;47.980;11.652;2023-05-16T05:59:55;14.30;68.60
50758;DHT22;36732;47.980;11.652;2023-05-16T06:02:20;14.30;68.60
50758;DHT22;36732;47.980;11.652;2023-05-16T06:04:46;14.30;68.50
50758;DHT22;36732;47.980;11.652;2023-05-16T06:07:12;14.30;68.40
50758;DHT22;36732;47.980;11.652;2023-05-16T06:09:40;14.30;68.50
50758;DHT22;36732;47.980;11.652;2023-05-16T06:12:07;14.30;68.40
50758;DHT22;36732;47.980;11.652;2023-05-16T06:14:33;14.30;68.50
50758;DHT22;36732;47.980;11.652;2023-05-16T06:16:59;14.30;68.50
50758;DHT22;36732;47.980;11.652;2023-05-16T06:19:25;14.30;68.40
50758;DHT22;36732;47.980;11.652;2023-05-16T06:21:51;14.30;68.50
50758;DHT22;36732;47.980;11.652;2023-05-16T06:24:16;14.30;69.20
50758;DHT22;36732;47.980;11.652;2023-05-16T06:26:42;14.30;68.70
50758;DHT22;36732;47.980;11.652;2023-05-16T06:29:10;14.30;68.80
50758;DHT22;36732;47.980;11.652;2023-05-16T06:31:36;14.30;69.00
50758;DHT22;36732;47.980;11.652;2023-05-16T06:34:02;14.30;69.00
50758;DHT22;36732;47.980;11.652;2023-05-16T06:36:27;14.30;69.00
50758;DHT22;36732;47.980;11.652;2023-05-16T06:38:53;14.40;69.00
50758;DHT22;36732;47.980;11.652;2023-05-16T06:41:19;14.40;69.10
50758;DHT22;36732;47.980;11.652;2023-05-16T06:43:45;14.40;69.10
50758;DHT22;36732;47.980;11.652;2023-05-16T06:46:11;14.40;69.20
50758;DHT22;36732;47.980;11.652;2023-05-16T06:48:37;14.40;69.20
50758;DHT22;36732;47.980;11.652;2023-05-16T06:51:02;14.40;69.10
50758;DHT22;36732;47.980;11.652;2023-05-16T06:53:28;14.40;69.10
50758;DHT22;36732;47.980;11.652;2023-05-16T06:55:54;14.40;69.00
50758;DHT22;36732;47.980;11.652;2023-05-16T06:58:20;14.40;69.10
50758;DHT22;36732;47.980;11.652;2023-05-16T07:00:47;14.40;69.10
50758;DHT22;36732;47.980;11.652;2023-05-16T07:03:14;14.40;69.00
50758;DHT22;36732;47.980;11.652;2023-05-16T07:05:40;14.40;69.00
50758;DHT22;36732;47.980;11.652;2023-05-16T07:08:08;14.40;69.10
50758;DHT22;36732;47.980;11.652;2023-05-16T07:10:37;14.40;69.20
50758;DHT22;36732;47.980;11.652;2023-05-16T07:13:03;14.40;69.10
50758;DHT22;36732;47.980;11.652;2023-05-16T07:15:29;14.40;69.00
50758;DHT22;36732;47.980;11.652;2023-05-16T07:17:55;14.40;69.10
50758;DHT22;36732;47.980;11.652;2023-05-16T07:20:21;14.40;69.10
50758;DHT22;36732;47.980;11.652;2023-05-16T07:22:47;14.40;69.10
50758;DHT22;36732;47.980;11.652;2023-05-16T07:25:13;14.40;69.10
50758;DHT22;36732;47.980;11.652;2023-05-16T07:27:40;14.40;69.20
50758;DHT22;36732;47.980;11.652;2023-05-16T07:30:12;14.40;69.20
50758;DHT22;36732;47.980;11.652;2023-05-16T07:32:39;14.40;69.20
50758;DHT22;36732;47.980;11.652;2023-05-16T07:35:05;14.40;69.20
50758;DHT22;36732;47.980;11.652;2023-05-16T07:37:31;14.40;69.30
50758;DHT22;36732;47.980;11.652;2023-05-16T07:39:57;14.40;69.30
50758;DHT22;36732;47.980;11.652;2023-05-16T07:42:23;14.40;69.30
50758;DHT22;36732;47.980;11.652;2023-05-16T07:44:49;14.40;69.20
50758;DHT22;36732;47.980;11.652;2023-05-16T07:47:15;14.40;69.30
50758;DHT22;36732;47.980;11.652;2023-05-16T07:49:41;14.40;69.50
50758;DHT22;36732;47.980;11.652;2023-05-16T07:52:06;14.40;69.60
50758;DHT22;36732;47.980;11.652;2023-05-16T07:54:34;14.40;69.50
50758;DHT22;36732;47.980;11.652;2023-05-16T07:57:00;14.40;69.60
50758;DHT22;36732;47.980;11.652;2023-05-16T07:59:27;14.40;69.60
50758;DHT22;36732;47.980;11.652;2023-05-16T08:01:53;14.40;69.60
50758;DHT22;36732;47.980;11.652;2023-05-16T08:04:19;14.40;69.70
50758;DHT22;36732;47.980;11.652;2023-05-16T08:06:45;14.40;69.80
50758;DHT22;36732;47.980;11.652;2023-05-16T08:09:11;14.40;69.80
50758;DHT22;36732;47.980;11.652;2023-05-16T08:11:37;14.40;69.90
50758;DHT22;36732;47.980;11.652;2023-05-16T08:14:04;14.40;69.80
50758;DHT22;36732;47.980;11.652;2023-05-16T08:16:30;14.40;69.70
50758;DHT22;36732;47.980;11.652;2023-05-16T08:18:56;14.40;69.80
50758;DHT22;36732;47.980;11.652;2023-05-16T08:21:21;14.40;69.80
50758;DHT22;36732;47.980;11.652;2023-05-16T08:23:47;14.40;69.80
50758;DHT22;36732;47.980;11.652;2023-05-16T08:26:13;14.40;69.70
50758;DHT22;36732;47.980;11.652;2023-05-16T08:28:38;14.40;69.70
50758;DHT22;36732;47.980;11.652;2023-05-16T08:31:04;14.40;69.90
50758;DHT22;36732;47.980;11.652;2023-05-16T08:33:30;14.40;69.90
50758;DHT22;36732;47.980;11.652;2023-05-16T08:35:56;14.40;69.90
50758;DHT22;36732;47.980;11.652;2023-05-16T08:38:21;14.40;70.00
50758;DHT22;36732;47.980;11.652;2023-05-16T08:40:47;14.40;70.00
50758;DHT22;36732;47.980;11.652;2023-05-16T08:43:13;14.40;70.10
50758;DHT22;36732;47.980;11.652;2023-05-16T08:45:39;14.40;70.20
50758;DHT22;36732;47.980;11.652;2023-05-16T08:48:07;14.40;70.30
50758;DHT22;36732;47.980;11.652;2023-05-16T08:50:35;14.40;70.50
50758;DHT22;36732;47.980;11.652;2023-05-16T08:53:05;14.40;70.40
50758;DHT22;36732;47.980;11.652;2023-05-16T08:55:34;14.50;70.80
50758;DHT22;36732;47.980;11.652;2023-05-16T08:58:00;14.50;70.80
50758;DHT22;36732;47.980;11.652;2023-05-16T09:00:26;14.50;70.70
50758;DHT22;36732;47.980;11.652;2023-05-16T09:02:52;14.50;70.70
50758;DHT22;36732;47.980;11.652;2023-05-16T09:05:18;14.50;71.60
50758;DHT22;36732;47.980;11.652;2023-05-16T09:07:44;14.50;70.90
50758;DHT22;36732;47.980;11.652;2023-05-16T09:10:11;14.50;71.00
50758;DHT22;36732;47.980;11.652;2023-05-16T09:12:38;14.60;71.10
50758;DHT22;36732;47.980;11.652;2023-05-16T09:15:07;14.60;71.00
50758;DHT22;36732;47.980;11.652;2023-05-16T09:20:08;14.60;71.20
50758;DHT22;36732;47.980;11.652;2023-05-16T09:22:36;14.60;71.20
50758;DHT22;36732;47.980;11.652;2023-05-16T09:25:02;14.70;71.10
50758;DHT22;36732;47.980;11.652;2023-05-16T09:27:30;14.70;71.10
50758;DHT22;36732;47.980;11.652;2023-05-16T09:29:57;14.70;71.10
50758;DHT22;36732;47.980;11.652;2023-05-16T09:32:23;14.70;70.90
50758;DHT22;36732;47.980;11.652;2023-05-16T09:34:51;14.70;71.00
50758;DHT22;36732;47.980;11.652;2023-05-16T09:37:18;14.70;70.90
50758;DHT22;36732;47.980;11.652;2023-05-16T09:39:52;14.70;70.90
50758;DHT22;36732;47.980;11.652;2023-05-16T09:42:19;14.70;70.90
50758;DHT22;36732;47.980;11.652;2023-05-16T09:44:49;14.70;70.90
50758;DHT22;36732;47.980;11.652;2023-05-16T09:47:16;14.70;70.90
50758;DHT22;36732;47.980;11.652;2023-05-16T09:49:44;14.70;70.90
50758;DHT22;36732;47.980;11.652;2023-05-16T09:52:13;14.80;71.00
50758;DHT22;36732;47.980;11.652;2023-05-16T09:54:39;14.80;71.00
50758;DHT22;36732;47.980;11.652;2023-05-16T09:57:06;14.80;71.00
50758;DHT22;36732;47.980;11.652;2023-05-16T09:59:38;14.80;71.10
50758;DHT22;36732;47.980;11.652;2023-05-16T10:02:05;14.80;71.00
50758;DHT22;36732;47.980;11.652;2023-05-16T10:04:34;14.80;71.10
50758;DHT22;36732;47.980;11.652;2023-05-16T10:07:02;14.80;71.10
50758;DHT22;36732;47.980;11.652;2023-05-16T10:09:34;14.80;71.10
50758;DHT22;36732;47.980;11.652;2023-05-16T10:12:02;14.80;70.90
50758;DHT22;36732;47.980;11.652;2023-05-16T10:14:33;14.80;70.80
50758;DHT22;36732;47.980;11.652;2023-05-16T10:17:10;14.80;71.00
50758;DHT22;36732;47.980;11.652;2023-05-16T10:19:38;14.80;70.90
50758;DHT22;36732;47.980;11.652;2023-05-16T10:22:05;14.80;70.70
50758;DHT22;36732;47.980;11.652;2023-05-16T10:27:35;14.80;70.60
50758;DHT22;36732;47.980;11.652;2023-05-16T10:30:02;14.80;70.70
50758;DHT22;36732;47.980;11.652;2023-05-16T10:32:30;14.80;70.60
50758;DHT22;36732;47.980;11.652;2023-05-16T10:34:56;14.80;70.60
50758;DHT22;36732;47.980;11.652;2023-05-16T10:37:28;14.80;70.70
50758;DHT22;36732;47.980;11.652;2023-05-16T10:39:56;14.80;70.80
50758;DHT22;36732;47.980;11.652;2023-05-16T10:42:22;14.80;70.90
50758;DHT22;36732;47.980;11.652;2023-05-16T10:44:48;14.80;70.90
50758;DHT22;36732;47.980;11.652;2023-05-16T10:47:18;14.90;70.90
50758;DHT22;36732;47.980;11.652;2023-05-16T10:49:44;14.90;70.90
50758;DHT22;36732;47.980;11.652;2023-05-16T10:52:11;14.90;70.90
50758;DHT22;36732;47.980;11.652;2023-05-16T10:54:42;14.90;70.90
50758;DHT22;36732;47.980;11.652;2023-05-16T10:57:15;14.90;70.90
50758;DHT22;36732;47.980;11.652;2023-05-16T10:59:45;14.90;70.70
50758;DHT22;36732;47.980;11.652;2023-05-16T11:02:31;14.90;70.70
50758;DHT22;36732;47.980;11.652;2023-05-16T11:05:00;14.90;70.60
50758;DHT22;36732;47.980;11.652;2023-05-16T11:07:31;14.90;70.60
50758;DHT22;36732;47.980;11.652;2023-05-16T11:12:48;14.90;70.80
50758;DHT22;36732;47.980;11.652;2023-05-16T11:15:21;14.90;70.80
50758;DHT22;36732;47.980;11.652;2023-05-16T11:17:47;14.90;70.70
50758;DHT22;36732;47.980;11.652;2023-05-16T11:20:29;14.90;70.70
50758;DHT22;36732;47.980;11.652;2023-05-16T11:25:49;14.90;70.90
50758;DHT22;36732;47.980;11.652;2023-05-16T11:28:17;14.90;70.90
50758;DHT22;36732;47.980;11.652;2023-05-16T11:30:49;14.90;70.90
50758;DHT22;36732;47.980;11.652;2023-05-16T11:33:17;14.90;71.10
50758;DHT22;36732;47.980;11.652;2023-05-16T11:35:58;14.90;71.10
50758;DHT22;36732;47.980;11.652;2023-05-16T11:38:25;15.00;71.20
50758;DHT22;36732;47.980;11.652;2023-05-16T11:40:53;14.90;71.20
50758;DHT22;36732;47.980;11.652;2023-05-16T11:43:19;15.00;71.20
50758;DHT22;36732;47.980;11.652;2023-05-16T11:45:45;15.00;71.20
50758;DHT22;36732;47.980;11.652;2023-05-16T11:48:11;15.00;71.30
50758;DHT22;36732;47.980;11.652;2023-05-16T11:50:37;15.00;71.30
50758;DHT22;36732;47.980;11.652;2023-05-16T11:53:03;15.00;71.40
50758;DHT22;36732;47.980;11.652;2023-05-16T11:55:29;15.00;71.30
50758;DHT22;36732;47.980;11.652;2023-05-16T11:57:58;15.00;71.40
50758;DHT22;36732;47.980;11.652;2023-05-16T12:00:25;15.00;71.50
50758;DHT22;36732;47.980;11.652;2023-05-16T12:02:53;15.00;71.30
50758;DHT22;36732;47.980;11.652;2023-05-16T12:05:20;15.00;71.50
50758;DHT22;36732;47.980;11.652;2023-05-16T12:07:50;15.00;71.60
50758;DHT22;36732;47.980;11.652;2023-05-16T12:10:18;15.00;71.80
50758;DHT22;36732;47.980;11.652;2023-05-16T12:12:46;15.00;71.80
50758;DHT22;36732;47.980;11.652;2023-05-16T12:15:13;15.00;71.90
50758;DHT22;36732;47.980;11.652;2023-05-16T12:17:40;15.00;71.90
50758;DHT22;36732;47.980;11.652;2023-05-16T12:20:08;15.00;71.70
50758;DHT22;36732;47.980;11.652;2023-05-16T12:22:39;15.00;71.50
50758;DHT22;36732;47.980;11.652;2023-05-16T12:25:44;15.00;71.30
50758;DHT22;36732;47.980;11.652;2023-05-16T12:28:12;14.90;71.70
50758;DHT22;36732;47.980;11.652;2023-05-16T12:30:43;14.90;71.50
50758;DHT22;36732;47.980;11.652;2023-05-16T12:33:11;14.90;71.70
50758;DHT22;36732;47.980;11.652;2023-05-16T12:35:43;14.90;71.50
50758;DHT22;36732;47.980;11.652;2023-05-16T12:38:13;14.90;71.20
50758;DHT22;36732;47.980;11.652;2023-05-16T12:40:41;14.90;71.00
50758;DHT22;36732;47.980;11.652;2023-05-16T12:45:52;14.90;71.40
50758;DHT22;36732;47.980;11.652;2023-05-16T12:48:22;14.80;71.70
50758;DHT22;36732;47.980;11.652;2023-05-16T12:50:49;14.90;71.80
50758;DHT22;36732;47.980;11.652;2023-05-16T12:53:17;14.90;72.20
50758;DHT22;36732;47.980;11.652;2023-05-16T12:55:43;14.80;72.50
50758;DHT22;36732;47.980;11.652;2023-05-16T12:58:10;14.80;72.60
50758;DHT22;36732;47.980;11.652;2023-05-16T13:00:36;14.80;72.60
50758;DHT22;36732;47.980;11.652;2023-05-16T13:03:05;14.80;72.60
50758;DHT22;36732;47.980;11.652;2023-05-16T13:05:32;14.80;72.80
50758;DHT22;36732;47.980;11.652;2023-05-16T13:07:58;14.80;72.70
50758;DHT22;36732;47.980;11.652;2023-05-16T13:10:23;14.80;72.60
50758;DHT22;36732;47.980;11.652;2023-05-16T13:12:50;14.80;72.60
50758;DHT22;36732;47.980;11.652;2023-05-16T13:15:16;14.80;72.60
50758;DHT22;36732;47.980;11.652;2023-05-16T13:17:42;14.80;72.60
50758;DHT22;36732;47.980;11.652;2023-05-16T13:20:08;14.80;72.70
50758;DHT22;36732;47.980;11.652;2023-05-16T13:22:38;14.80;72.70
50758;DHT22;36732;47.980;11.652;2023-05-16T13:25:04;14.90;72.80
50758;DHT22;36732;47.980;11.652;2023-05-16T13:27:31;14.90;72.90
50758;DHT22;36732;47.980;11.652;2023-05-16T13:29:57;14.90;72.80
50758;DHT22;36732;47.980;11.652;2023-05-16T13:32:24;14.90;73.10
50758;DHT22;36732;47.980;11.652;2023-05-16T13:34:50;14.90;73.10
50758;DHT22;36732;47.980;11.652;2023-05-16T13:37:17;14.90;73.10
50758;DHT22;36732;47.980;11.652;2023-05-16T13:39:42;14.90;73.30
50758;DHT22;36732;47.980;11.652;2023-05-16T13:42:08;14.90;73.50
50758;DHT22;36732;47.980;11.652;2023-05-16T13:44:34;14.90;73.40
50758;DHT22;36732;47.980;11.652;2023-05-16T13:47:00;14.90;73.40
50758;DHT22;36732;47.980;11.652;2023-05-16T13:49:26;15.00;73.50
50758;DHT22;36732;47.980;11.652;2023-05-16T13:51:52;15.00;73.40
50758;DHT22;36732;47.980;11.652;2023-05-16T13:54:18;15.00;73.30
50758;DHT22;36732;47.980;11.652;2023-05-16T13:56:44;15.00;73.50
50758;DHT22;36732;47.980;11.652;2023-05-16T13:59:10;15.00;73.50
50758;DHT22;36732;47.980;11.652;2023-05-16T14:01:36;15.00;73.50
50758;DHT22;36732;47.980;11.652;2023-05-16T14:04:02;15.00;73.90
50758;DHT22;36732;47.980;11.652;2023-05-16T14:06:28;15.00;73.90
50758;DHT22;36732;47.980;11.652;2023-05-16T14:08:54;15.10;73.90
50758;DHT22;36732;47.980;11.652;2023-05-16T14:11:20;15.10;74.10
50758;DHT22;36732;47.980;11.652;2023-05-16T14:13:51;15.10;74.20
50758;DHT22;36732;47.980;11.652;2023-05-16T14:16:17;15.10;74.00
50758;DHT22;36732;47.980;11.652;2023-05-16T14:18:43;15.10;74.00
50758;DHT22;36732;47.980;11.652;2023-05-16T14:21:08;15.10;73.90
50758;DHT22;36732;47.980;11.652;2023-05-16T14:23:34;15.10;72.90
50758;DHT22;36732;47.980;11.652;2023-05-16T14:26:00;15.10;72.40
50758;DHT22;36732;47.980;11.652;2023-05-16T14:28:27;15.10;71.90
50758;DHT22;36732;47.980;11.652;2023-05-16T14:30:53;15.10;71.60
50758;DHT22;36732;47.980;11.652;2023-05-16T14:33:19;15.00;71.30
50758;DHT22;36732;47.980;11.652;2023-05-16T14:35:44;15.00;71.20
50758;DHT22;36732;47.980;11.652;2023-05-16T14:38:10;15.00;70.90
50758;DHT22;36732;47.980;11.652;2023-05-16T14:40:36;14.90;70.80
50758;DHT22;36732;47.980;11.652;2023-05-16T14:43:01;14.90;70.90
50758;DHT22;36732;47.980;11.652;2023-05-16T14:45:28;14.80;70.90
50758;DHT22;36732;47.980;11.652;2023-05-16T14:47:54;14.80;71.00
50758;DHT22;36732;47.980;11.652;2023-05-16T14:50:20;14.80;71.00
50758;DHT22;36732;47.980;11.652;2023-05-16T14:52:46;14.70;70.80
50758;DHT22;36732;47.980;11.652;2023-05-16T14:55:12;14.70;70.80
50758;DHT22;36732;47.980;11.652;2023-05-16T14:57:38;14.70;70.80
50758;DHT22;36732;47.980;11.652;2023-05-16T15:00:04;14.70;70.80
50758;DHT22;36732;47.980;11.652;2023-05-16T15:02:31;14.60;70.70
50758;DHT22;36732;47.980;11.652;2023-05-16T15:04:57;14.60;70.70
50758;DHT22;36732;47.980;11.652;2023-05-16T15:07:23;14.60;70.70
50758;DHT22;36732;47.980;11.652;2023-05-16T15:09:49;14.50;70.70
50758;DHT22;36732;47.980;11.652;2023-05-16T15:12:15;14.50;70.90
50758;DHT22;36732;47.980;11.652;2023-05-16T15:14:41;14.50;70.90
50758;DHT22;36732;47.980;11.652;2023-05-16T15:17:07;14.50;71.00
50758;DHT22;36732;47.980;11.652;2023-05-16T15:19:32;14.50;71.00
50758;DHT22;36732;47.980;11.652;2023-05-16T15:21:58;14.50;71.10
50758;DHT22;36732;47.980;11.652;2023-05-16T15:24:24;14.50;71.20
50758;DHT22;36732;47.980;11.652;2023-05-16T15:26:50;14.50;71.20
50758;DHT22;36732;47.980;11.652;2023-05-16T15:29:16;14.50;71.10
50758;DHT22;36732;47.980;11.652;2023-05-16T15:31:44;14.40;71.60
50758;DHT22;36732;47.980;11.652;2023-05-16T15:34:10;14.40;70.80
50758;DHT22;36732;47.980;11.652;2023-05-16T15:36:36;14.40;70.70
50758;DHT22;36732;47.980;11.652;2023-05-16T15:39:02;14.40;70.70
50758;DHT22;36732;47.980;11.652;2023-05-16T15:41:27;14.40;70.70
50758;DHT22;36732;47.980;11.652;2023-05-16T15:43:53;14.30;70.80